createdAt,value
2023-04-08T00:01:28.126Z,7.30
2023-04-08T00:03:54.815Z,7.73
2023-04-08T00:06:21.523Z,7.67
2023-04-08T00:08:48.229Z,7.30
2023-04-08T00:11:14.921Z,7.57
2023-04-08T00:13:41.421Z,7.60
2023-04-08T00:16:08.198Z,8.17
2023-04-08T00:18:34.900Z,6.93
2023-04-08T00:21:01.426Z,7.57
2023-04-08T00:23:27.972Z,8.63
2023-04-08T00:25:54.490Z,7.53
2023-04-08T00:28:21.173Z,7.03
2023-04-08T00:30:47.723Z,7.60
2023-04-08T00:33:14.422Z,8.10
2023-04-08T00:35:41.170Z,8.10
2023-04-08T00:38:08.532Z,7.80
2023-04-08T00:40:35.266Z,7.30
2023-04-08T00:43:01.779Z,6.80
2023-04-08T00:45:28.324Z,6.90
2023-04-08T00:47:54.972Z,7.13
2023-04-08T00:50:21.689Z,6.40
2023-04-08T00:52:48.174Z,7.13
2023-04-08T00:55:14.735Z,7.03
2023-04-08T00:57:42.120Z,6.03
2023-04-08T01:00:09.675Z,7.63
2023-04-08T01:02:45.816Z,6.80
2023-04-08T01:05:19.902Z,5.67
2023-04-08T01:07:50.703Z,5.80
2023-04-08T01:10:22.153Z,5.60
2023-04-08T01:12:53.284Z,5.80
2023-04-08T01:15:20.841Z,5.47
2023-04-08T01:17:48.614Z,5.67
2023-04-08T01:20:16.680Z,6.50
2023-04-08T01:22:58.441Z,6.10
2023-04-08T01:25:32.070Z,4.27
2023-04-08T01:28:00.474Z,5.50
2023-04-08T01:30:30.334Z,5.33
2023-04-08T01:32:58.850Z,5.37
2023-04-08T01:35:25.734Z,5.70
2023-04-08T01:37:53.922Z,4.73
2023-04-08T01:40:21.270Z,4.10
2023-04-08T01:42:49.658Z,5.30
2023-04-08T01:45:17.056Z,5.60
2023-04-08T01:47:47.316Z,5.27
2023-04-08T01:50:15.737Z,6.03
2023-04-08T01:52:47.952Z,5.60
2023-04-08T01:55:15.273Z,5.20
2023-04-08T01:57:44.860Z,5.80
2023-04-08T02:00:13.843Z,5.30
2023-04-08T02:02:47.896Z,6.17
2023-04-08T02:05:15.080Z,5.70
2023-04-08T02:07:41.776Z,5.40
2023-04-08T02:10:08.701Z,5.20
2023-04-08T02:12:35.444Z,5.57
2023-04-08T02:15:02.519Z,5.47
2023-04-08T02:17:47.430Z,5.27
2023-04-08T02:20:17.039Z,5.90
2023-04-08T02:23:05.799Z,6.40
2023-04-08T02:25:36.007Z,5.53
2023-04-08T02:28:06.075Z,6.10
2023-04-08T02:30:35.642Z,5.97
2023-04-08T02:33:04.848Z,6.40
2023-04-08T02:35:32.768Z,5.70
2023-04-08T02:37:59.460Z,6.40
2023-04-08T02:40:27.077Z,5.77
2023-04-08T02:42:54.264Z,6.13
2023-04-08T02:45:21.294Z,6.80
2023-04-08T02:47:49.832Z,6.10
2023-04-08T02:50:16.399Z,5.77
2023-04-08T02:52:44.851Z,6.50
2023-04-08T02:55:11.628Z,6.70
2023-04-08T02:57:40.524Z,6.33
2023-04-08T03:00:08.353Z,6.70
2023-04-08T03:02:35.297Z,6.37
2023-04-08T03:05:02.514Z,6.33
2023-04-08T03:07:29.055Z,6.70
2023-04-08T03:09:55.685Z,5.47
2023-04-08T03:12:23.070Z,6.97
2023-04-08T03:14:50.488Z,7.13
2023-04-08T03:17:17.089Z,6.07
2023-04-08T03:19:43.615Z,7.17
2023-04-08T03:22:10.164Z,7.10
2023-04-08T03:24:37.337Z,6.87
2023-04-08T03:27:04.022Z,7.97
2023-04-08T03:29:30.627Z,7.57
2023-04-08T03:31:57.305Z,7.50
2023-04-08T03:34:23.912Z,8.30
2023-04-08T03:36:50.465Z,7.50
2023-04-08T03:39:17.224Z,7.20
2023-04-08T03:41:43.805Z,7.53
2023-04-08T03:44:10.481Z,7.47
2023-04-08T03:46:36.967Z,8.50
2023-04-08T03:49:03.462Z,8.37
2023-04-08T03:51:30.479Z,8.07
2023-04-08T03:53:56.964Z,8.70
2023-04-08T03:56:23.583Z,9.03
2023-04-08T03:58:50.293Z,8.63
2023-04-08T04:01:17.045Z,9.23
2023-04-08T04:03:43.710Z,9.63
2023-04-08T04:06:10.697Z,9.17
2023-04-08T04:08:37.179Z,9.10
2023-04-08T04:11:03.641Z,8.87
2023-04-08T04:13:30.195Z,9.10
2023-04-08T04:15:57.563Z,10.23
2023-04-08T04:18:24.219Z,10.07
2023-04-08T04:20:50.730Z,9.23
2023-04-08T04:23:17.258Z,10.00
2023-04-08T04:25:44.340Z,10.30
2023-04-08T04:28:10.958Z,10.03
2023-04-08T04:30:38.685Z,9.83
2023-04-08T04:33:06.382Z,8.57
2023-04-08T04:35:33.491Z,9.67
2023-04-08T04:38:00.517Z,8.87
2023-04-08T04:40:27.335Z,9.23
2023-04-08T04:42:53.838Z,10.03
2023-04-08T04:45:20.370Z,11.30
2023-04-08T04:47:46.960Z,9.87
2023-04-08T04:50:13.526Z,10.10
2023-04-08T04:52:41.424Z,9.73
2023-04-08T04:55:08.424Z,9.80
2023-04-08T04:57:34.885Z,10.60
2023-04-08T05:00:03.823Z,11.90
2023-04-08T05:02:32.289Z,10.63
2023-04-08T05:04:59.017Z,10.80
2023-04-08T05:07:25.707Z,11.67
2023-04-08T05:09:52.343Z,11.40
2023-04-08T05:12:20.627Z,13.07
2023-04-08T05:14:47.414Z,11.70
2023-04-08T05:17:14.321Z,10.30
2023-04-08T05:19:40.770Z,11.17
2023-04-08T05:22:07.266Z,12.10
2023-04-08T05:24:33.758Z,12.10
2023-04-08T05:27:01.143Z,12.90
2023-04-08T05:29:28.509Z,12.37
2023-04-08T05:31:56.512Z,12.47
2023-04-08T05:34:23.284Z,12.57
2023-04-08T05:36:53.257Z,13.10
2023-04-08T05:39:20.277Z,13.33
2023-04-08T05:41:46.927Z,13.53
2023-04-08T05:44:14.317Z,14.10
2023-04-08T05:46:41.014Z,13.87
2023-04-08T05:49:07.575Z,13.40
2023-04-08T05:51:34.152Z,13.13
2023-04-08T05:54:01.074Z,13.50
2023-04-08T05:56:27.612Z,12.80
2023-04-08T05:58:54.132Z,13.40
2023-04-08T06:01:20.835Z,12.37
2023-04-08T06:03:47.666Z,14.10
2023-04-08T06:06:14.448Z,12.07
2023-04-08T06:08:41.226Z,13.10
2023-04-08T06:11:07.765Z,14.10
2023-04-08T06:13:34.380Z,12.33
2023-04-08T06:16:11.210Z,13.60
2023-04-08T06:18:37.998Z,14.20
2023-04-08T06:21:04.668Z,10.97
2023-04-08T06:23:31.171Z,13.60
2023-04-08T06:25:58.574Z,13.13
2023-04-08T06:28:25.280Z,12.50
2023-04-08T06:30:51.790Z,12.90
2023-04-08T06:33:18.286Z,12.03
2023-04-08T06:35:44.897Z,13.20
2023-04-08T06:38:11.432Z,13.30
2023-04-08T06:40:39.622Z,13.10
2023-04-08T06:43:09.246Z,12.60
2023-04-08T06:45:39.383Z,13.20
2023-04-08T06:48:08.971Z,13.67
2023-04-08T06:50:35.991Z,12.50
2023-04-08T06:53:02.486Z,13.77
2023-04-08T06:55:29.067Z,13.93
2023-04-08T06:57:55.703Z,14.00
2023-04-08T07:00:22.248Z,15.50
2023-04-08T07:02:48.937Z,16.20
2023-04-08T07:05:15.584Z,12.60
2023-04-08T07:07:42.128Z,14.57
2023-04-08T07:10:10.938Z,13.73
2023-04-08T07:12:37.782Z,14.00
2023-04-08T07:15:04.658Z,14.73
2023-04-08T07:17:31.188Z,13.30
2023-04-08T07:19:57.755Z,14.57
2023-04-08T07:22:24.272Z,13.50
2023-04-08T07:24:50.819Z,14.60
2023-04-08T07:27:17.404Z,15.00
2023-04-08T07:29:44.260Z,12.80
2023-04-08T07:32:10.734Z,13.60
2023-04-08T07:34:37.983Z,13.57
2023-04-08T07:37:04.569Z,12.77
2023-04-08T07:39:31.189Z,11.93
2023-04-08T07:41:57.672Z,12.97
2023-04-08T07:44:24.388Z,13.60
2023-04-08T07:46:51.824Z,12.43
2023-04-08T07:49:18.701Z,12.57
2023-04-08T07:51:45.215Z,13.00
2023-04-08T07:54:12.595Z,12.40
2023-04-08T07:56:40.423Z,12.70
2023-04-08T07:59:07.300Z,11.50
2023-04-08T08:01:35.913Z,11.77
2023-04-08T08:04:02.868Z,10.33
2023-04-08T08:06:29.960Z,10.07
2023-04-08T08:08:56.477Z,11.80
2023-04-08T08:11:22.944Z,11.37
2023-04-08T08:13:49.604Z,11.93
2023-04-08T08:16:16.440Z,10.60
2023-04-08T08:18:42.996Z,10.30
2023-04-08T08:21:09.726Z,9.33
2023-04-08T08:23:37.409Z,10.90
2023-04-08T08:26:12.167Z,10.47
2023-04-08T08:28:39.132Z,10.70
2023-04-08T08:31:06.305Z,9.90
2023-04-08T08:33:33.573Z,10.07
2023-04-08T08:36:00.322Z,10.37
2023-04-08T08:38:27.292Z,10.57
2023-04-08T08:40:55.394Z,10.17
2023-04-08T08:43:22.834Z,10.10
2023-04-08T08:45:49.385Z,10.80
2023-04-08T08:48:15.884Z,11.87
2023-04-08T08:50:42.409Z,11.80
2023-04-08T08:53:08.943Z,11.00
2023-04-08T08:56:02.168Z,11.00
2023-04-08T08:58:22.346Z,9.50
2023-04-08T09:00:48.924Z,11.00
2023-04-08T09:03:23.613Z,10.50
2023-04-08T09:05:53.059Z,8.53
2023-04-08T09:08:33.537Z,9.83
2023-04-08T09:11:22.339Z,9.37
2023-04-08T09:13:49.306Z,8.17
2023-04-08T09:16:18.355Z,10.00
2023-04-08T09:18:47.201Z,10.30
2023-04-08T09:21:15.120Z,8.77
2023-04-08T09:23:43.354Z,10.00
2023-04-08T09:26:17.941Z,9.87
2023-04-08T09:28:57.698Z,9.47
2023-04-08T09:31:41.252Z,10.40
2023-04-08T09:34:23.367Z,10.60
2023-04-08T09:36:50.854Z,11.37
2023-04-08T09:39:17.624Z,10.30
2023-04-08T09:41:44.785Z,10.83
2023-04-08T09:44:12.117Z,11.20
2023-04-08T09:46:56.079Z,10.27
2023-04-08T09:49:27.664Z,9.87
2023-04-08T09:52:20.949Z,11.07
2023-04-08T09:55:01.795Z,12.00
2023-04-08T09:57:36.600Z,10.50
2023-04-08T10:00:13.761Z,11.10
2023-04-08T10:03:15.141Z,10.47
2023-04-08T10:05:43.685Z,11.20
2023-04-08T10:08:10.604Z,11.07
2023-04-08T10:10:40.728Z,14.70
2023-04-08T10:13:08.145Z,12.70
2023-04-08T10:15:36.890Z,13.97
2023-04-08T10:18:04.474Z,14.60
2023-04-08T10:20:42.391Z,11.90
2023-04-08T10:23:14.600Z,13.50
2023-04-08T10:25:48.764Z,14.27
2023-04-08T10:28:15.423Z,15.13
2023-04-08T10:30:55.551Z,13.03
2023-04-08T10:33:34.980Z,21.00
2023-04-08T10:36:15.296Z,18.27
2023-04-08T10:38:42.971Z,12.17
2023-04-08T10:41:14.184Z,13.30
2023-04-08T10:43:41.008Z,11.37
2023-04-08T10:46:10.597Z,12.03
2023-04-08T10:48:37.107Z,13.10
2023-04-08T10:51:05.870Z,13.60
2023-04-08T10:53:35.372Z,14.37
2023-04-08T10:56:15.103Z,13.20
2023-04-08T10:58:56.544Z,13.03
2023-04-08T11:01:23.714Z,14.20
2023-04-08T11:03:50.668Z,13.57
2023-04-08T11:06:18.308Z,14.00
2023-04-08T11:08:45.507Z,13.60
2023-04-08T11:11:12.072Z,12.53
2023-04-08T11:13:52.767Z,12.40
2023-04-08T11:16:21.439Z,12.67
2023-04-08T11:18:48.418Z,13.90
2023-04-08T11:21:16.576Z,13.17
2023-04-08T11:23:43.265Z,12.10
2023-04-08T11:26:11.135Z,12.27
2023-04-08T11:28:38.081Z,12.20
2023-04-08T11:31:05.779Z,12.23
2023-04-08T11:33:32.997Z,12.00
2023-04-08T11:36:02.246Z,12.93
2023-04-08T11:38:29.332Z,14.20
2023-04-08T11:40:59.951Z,13.93
2023-04-08T11:43:27.059Z,12.80
2023-04-08T11:45:53.550Z,11.33
2023-04-08T11:48:20.142Z,12.30
2023-04-08T11:50:46.752Z,13.23
2023-04-08T11:53:31.671Z,13.80
2023-04-08T11:55:58.338Z,13.60
2023-04-08T11:58:24.918Z,12.83
2023-04-08T12:00:52.502Z,12.33
2023-04-08T12:03:19.087Z,12.90
2023-04-08T12:05:46.411Z,12.17
2023-04-08T12:08:12.931Z,10.60
2023-04-08T12:10:39.494Z,12.10
2023-04-08T12:13:06.041Z,12.80
2023-04-08T12:15:32.847Z,13.03
2023-04-08T12:17:59.394Z,12.50
2023-04-08T12:20:26.065Z,11.40
2023-04-08T12:22:52.638Z,10.93
2023-04-08T12:25:19.108Z,11.63
2023-04-08T12:27:45.587Z,11.40
2023-04-08T12:30:12.967Z,10.67
2023-04-08T12:32:39.707Z,9.90
2023-04-08T12:35:06.437Z,9.70
2023-04-08T12:37:33.483Z,10.10
2023-04-08T12:40:00.218Z,10.77
2023-04-08T12:42:27.891Z,10.10
2023-04-08T12:44:54.657Z,10.70
2023-04-08T12:47:21.287Z,9.90
2023-04-08T12:49:49.829Z,9.00
2023-04-08T12:52:17.174Z,11.20
2023-04-08T12:54:44.907Z,9.13
2023-04-08T12:57:11.783Z,9.20
2023-04-08T12:59:39.842Z,8.97
2023-04-08T13:02:07.735Z,9.77
2023-04-08T13:04:35.634Z,8.37
2023-04-08T13:07:02.391Z,8.53
2023-04-08T13:09:30.601Z,8.87
2023-04-08T13:11:58.068Z,8.70
2023-04-08T13:14:24.562Z,8.00
2023-04-08T13:16:51.537Z,7.67
2023-04-08T13:19:18.262Z,8.07
2023-04-08T13:21:46.252Z,8.10
2023-04-08T13:24:13.311Z,7.03
2023-04-08T13:26:40.208Z,8.20
2023-04-08T13:29:07.297Z,7.80
2023-04-08T13:31:34.073Z,9.13
2023-04-08T13:34:00.753Z,8.63
2023-04-08T13:36:28.776Z,8.87
2023-04-08T13:38:56.509Z,8.30
2023-04-08T13:41:23.428Z,9.07
2023-04-08T13:43:50.430Z,7.97
2023-04-08T13:46:18.185Z,9.10
2023-04-08T13:48:46.290Z,8.87
2023-04-08T13:51:13.059Z,9.40
2023-04-08T13:53:47.025Z,9.93
2023-04-08T13:56:13.476Z,9.50
2023-04-08T13:58:40.701Z,10.90
2023-04-08T14:01:07.220Z,10.17
2023-04-08T14:03:33.700Z,9.70
2023-04-08T14:06:01.937Z,11.23
2023-04-08T14:08:28.676Z,10.17
2023-04-08T14:10:58.248Z,8.80
2023-04-08T14:13:24.691Z,9.40
2023-04-08T14:15:53.766Z,8.63
2023-04-08T14:18:20.691Z,8.53
2023-04-08T14:20:47.262Z,8.80
2023-04-08T14:23:13.746Z,8.90
2023-04-08T14:25:40.807Z,8.83
2023-04-08T14:28:07.934Z,8.13
2023-04-08T14:30:36.170Z,8.67
2023-04-08T14:33:02.859Z,9.40
2023-04-08T14:35:29.417Z,10.60
2023-04-08T14:37:56.546Z,9.43
2023-04-08T14:40:23.414Z,8.20
2023-04-08T14:42:50.005Z,9.10
2023-04-08T14:45:16.738Z,9.13
2023-04-08T14:47:43.216Z,9.13
2023-04-08T14:50:09.970Z,7.70
2023-04-08T14:52:36.418Z,9.50
2023-04-08T14:55:02.971Z,9.50
2023-04-08T14:57:29.423Z,8.60
2023-04-08T14:59:55.949Z,9.40
2023-04-08T15:02:22.542Z,8.87
2023-04-08T15:04:49.071Z,8.37
2023-04-08T15:07:15.808Z,8.00
2023-04-08T15:50:49.737Z,13.40
2023-04-08T15:56:16.212Z,11.43
2023-04-08T15:58:44.165Z,12.50
2023-04-08T16:01:11.225Z,12.50
2023-04-08T16:03:38.463Z,12.60
2023-04-08T16:06:06.134Z,12.83
2023-04-08T16:08:34.640Z,12.13
2023-04-08T16:11:03.421Z,12.00
2023-04-08T16:16:19.647Z,13.57
2023-04-08T16:18:47.650Z,12.27
2023-04-08T16:21:14.501Z,11.77
2023-04-08T16:23:41.321Z,12.30
2023-04-08T16:26:08.622Z,13.80
2023-04-08T16:28:36.734Z,12.73
2023-04-08T16:31:06.874Z,13.27
2023-04-08T16:33:33.645Z,11.73
2023-04-08T16:36:00.893Z,13.20
2023-04-08T16:38:27.764Z,12.33
2023-04-08T16:40:57.698Z,14.03
2023-04-08T16:43:25.144Z,12.27
2023-04-08T16:45:52.574Z,13.43
2023-04-08T16:48:19.413Z,13.00
2023-04-08T16:50:46.047Z,11.30
2023-04-08T16:53:12.533Z,10.70
2023-04-08T16:55:38.999Z,12.67
2023-04-08T16:58:06.229Z,11.70
2023-04-08T17:00:32.774Z,12.03
2023-04-08T17:03:00.595Z,12.50
2023-04-08T17:05:27.422Z,11.53
2023-04-08T17:07:56.343Z,11.63
2023-04-08T17:10:23.368Z,11.07
2023-04-08T17:12:49.846Z,10.00
2023-04-08T17:15:16.354Z,10.80
2023-04-08T17:17:42.901Z,10.37
2023-04-08T17:20:10.043Z,10.70
2023-04-08T17:22:36.550Z,8.57
2023-04-08T17:25:03.176Z,9.90
2023-04-08T17:27:29.729Z,11.00
2023-04-08T17:29:57.835Z,9.30
2023-04-08T17:32:24.957Z,9.73
2023-04-08T17:34:52.352Z,9.37
2023-04-08T17:37:19.416Z,9.90
2023-04-08T17:39:46.087Z,9.93
2023-04-08T17:42:13.136Z,10.60
2023-04-08T17:44:42.121Z,10.40
2023-04-08T17:47:08.919Z,9.90
2023-04-08T17:49:35.542Z,10.33
2023-04-08T17:52:02.092Z,12.00
2023-04-08T17:54:28.808Z,12.93
2023-04-08T17:56:56.108Z,12.80
2023-04-08T17:59:22.580Z,12.63
2023-04-08T18:01:49.202Z,13.17
2023-04-08T18:04:16.115Z,12.77
2023-04-08T18:06:42.656Z,12.30
2023-04-08T18:09:09.181Z,13.13
2023-04-08T18:11:35.853Z,12.00
2023-04-08T18:14:02.425Z,11.37
2023-04-08T18:16:29.008Z,11.47
2023-04-08T18:18:55.510Z,12.33
2023-04-08T18:21:22.302Z,12.13
2023-04-08T18:23:50.113Z,13.00
2023-04-08T18:26:17.290Z,10.97
2023-04-08T18:28:44.192Z,11.23
2023-04-08T18:31:10.839Z,12.13
2023-04-08T18:33:39.001Z,11.60
2023-04-08T18:36:10.181Z,10.77
2023-04-08T18:38:36.835Z,10.97
2023-04-08T18:41:04.559Z,11.53
2023-04-08T18:43:32.599Z,11.40
2023-04-08T18:45:59.746Z,10.80
2023-04-08T18:48:26.623Z,11.90
2023-04-08T18:50:53.506Z,10.30
2023-04-08T18:53:20.145Z,11.60
2023-04-08T18:55:46.685Z,11.57
2023-04-08T18:58:13.493Z,10.53
2023-04-08T19:00:43.707Z,9.60
2023-04-08T19:03:10.883Z,12.07
2023-04-08T19:05:38.243Z,10.73
2023-04-08T19:08:05.771Z,11.23
2023-04-08T19:10:35.428Z,11.70
2023-04-08T19:13:02.944Z,11.20
2023-04-08T19:15:30.472Z,12.77
2023-04-08T19:18:01.910Z,12.17
2023-04-08T19:20:30.513Z,12.27
2023-04-08T19:22:58.481Z,12.83
2023-04-08T19:25:27.251Z,12.90
2023-04-08T19:27:54.953Z,12.47
2023-04-08T19:30:22.734Z,12.50
2023-04-08T19:32:49.909Z,12.57
2023-04-08T19:35:16.705Z,11.73
2023-04-08T19:37:43.360Z,12.73
2023-04-08T19:40:11.287Z,11.10
2023-04-08T19:42:37.824Z,11.67
2023-04-08T19:45:06.204Z,12.23
2023-04-08T19:47:33.474Z,13.47
2023-04-08T19:50:04.392Z,14.40
2023-04-08T19:52:31.524Z,14.97
2023-04-08T19:54:58.411Z,16.00
2023-04-08T19:57:25.505Z,14.03
2023-04-08T19:59:55.175Z,14.17
2023-04-08T20:02:22.174Z,14.53
2023-04-08T20:04:48.871Z,14.17
2023-04-08T20:07:15.419Z,15.40
2023-04-08T20:09:41.923Z,14.50
2023-04-08T20:12:09.123Z,14.83
2023-04-08T20:14:38.847Z,13.80
2023-04-08T20:17:05.604Z,14.00
2023-04-08T20:19:32.610Z,13.87
2023-04-08T20:21:59.127Z,13.57
2023-04-08T20:24:26.262Z,14.20
2023-04-08T20:26:53.502Z,13.13
2023-04-08T20:29:19.974Z,13.53
2023-04-08T20:31:47.269Z,12.23
2023-04-08T20:34:13.999Z,12.50
2023-04-08T20:36:41.102Z,13.63
2023-04-08T20:39:10.958Z,12.73
2023-04-08T20:41:38.036Z,13.20
2023-04-08T20:44:06.812Z,12.80
2023-04-08T20:46:33.567Z,13.37
2023-04-08T20:49:00.125Z,14.33
2023-04-08T20:51:27.289Z,15.67
2023-04-08T20:53:53.855Z,16.13
2023-04-08T20:56:21.062Z,14.90
2023-04-08T20:58:47.630Z,16.07
2023-04-08T21:01:14.251Z,17.40
2023-04-08T21:03:41.067Z,15.60
2023-04-08T21:06:07.776Z,14.97
2023-04-08T21:08:34.303Z,14.80
2023-04-08T21:11:00.831Z,15.70
2023-04-08T21:13:27.337Z,13.67
2023-04-08T21:15:53.797Z,15.27
2023-04-08T21:18:20.295Z,14.00
2023-04-08T21:20:46.887Z,14.03
2023-04-08T21:23:13.449Z,14.30
2023-04-08T21:25:39.957Z,15.20
2023-04-08T21:28:06.453Z,14.00
2023-04-08T21:30:32.968Z,14.53
2023-04-08T21:32:59.481Z,12.90
2023-04-08T21:35:26.028Z,12.07
2023-04-08T21:37:52.493Z,12.80
2023-04-08T21:40:19.170Z,13.60
2023-04-08T21:42:46.240Z,14.03
2023-04-08T21:45:12.809Z,13.23
2023-04-08T21:47:39.474Z,13.17
2023-04-08T21:50:07.749Z,12.00
2023-04-08T21:52:34.311Z,13.10
2023-04-08T21:55:00.928Z,12.90
2023-04-08T21:57:28.030Z,12.23
2023-04-08T21:59:55.701Z,12.73
2023-04-08T22:02:22.513Z,12.10
2023-04-08T22:04:49.251Z,11.97
2023-04-08T22:07:16.074Z,13.30
2023-04-08T22:09:42.581Z,12.70
2023-04-08T22:12:10.024Z,13.07
2023-04-08T22:14:36.773Z,13.07
2023-04-08T22:17:04.548Z,13.83
2023-04-08T22:19:31.199Z,12.63
2023-04-08T22:21:57.760Z,12.70
2023-04-08T22:24:25.394Z,13.27
2023-04-08T22:26:53.095Z,11.50
2023-04-08T22:29:19.604Z,13.70
2023-04-08T22:31:46.387Z,12.13
2023-04-08T22:34:12.937Z,12.90
2023-04-08T22:36:39.570Z,12.00
2023-04-08T22:39:06.268Z,12.60
2023-04-08T22:41:32.764Z,12.07
2023-04-08T22:43:59.314Z,11.53
2023-04-08T22:46:25.884Z,12.43
2023-04-08T22:48:52.789Z,11.30
2023-04-08T22:51:19.462Z,11.17
2023-04-08T22:53:46.162Z,11.50
2023-04-08T22:56:12.704Z,11.83
2023-04-08T22:58:39.276Z,11.37
2023-04-08T23:01:17.268Z,11.23
2023-04-08T23:03:44.505Z,12.43
2023-04-08T23:06:11.481Z,12.23
2023-04-08T23:08:38.744Z,10.83
2023-04-08T23:11:06.373Z,11.60
2023-04-08T23:13:33.302Z,12.47
2023-04-08T23:16:00.031Z,12.60
2023-04-08T23:18:26.758Z,11.27
2023-04-08T23:20:55.332Z,11.23
2023-04-08T23:23:24.177Z,12.00
2023-04-08T23:25:51.661Z,12.40
2023-04-08T23:28:18.374Z,11.00
2023-04-08T23:30:45.031Z,12.77
2023-04-08T23:33:11.665Z,12.50
2023-04-08T23:35:41.892Z,12.10
2023-04-08T23:38:08.574Z,12.47
2023-04-08T23:40:35.317Z,12.60
2023-04-08T23:43:01.860Z,11.00
2023-04-08T23:45:28.361Z,12.37
2023-04-08T23:47:54.934Z,13.00
2023-04-08T23:50:23.019Z,12.90
2023-04-08T23:52:49.666Z,12.90
2023-04-08T23:55:16.236Z,13.70
2023-04-08T23:57:50.664Z,12.70
